createdAt,value
2018-07-12T00:02:21.240Z,99.90
2018-07-12T00:04:48.988Z,99.90
2018-07-12T00:07:16.607Z,99.90
2018-07-12T00:09:44.187Z,99.90
2018-07-12T00:12:11.894Z,99.90
2018-07-12T00:14:39.840Z,99.90
2018-07-12T00:17:08.013Z,99.90
2018-07-12T00:19:35.703Z,99.90
2018-07-12T00:22:03.467Z,99.90
2018-07-12T00:24:31.176Z,99.90
2018-07-12T00:26:59.297Z,99.90
2018-07-12T00:29:27.111Z,99.90
2018-07-12T00:31:55.173Z,99.90
2018-07-12T00:34:22.890Z,99.90
2018-07-12T00:36:50.711Z,99.90
2018-07-12T00:39:18.377Z,99.90
2018-07-12T00:41:46.476Z,99.90
2018-07-12T00:44:13.983Z,99.90
2018-07-12T00:46:41.640Z,99.90
2018-07-12T00:49:09.571Z,99.90
2018-07-12T00:51:37.351Z,99.90
2018-07-12T00:54:05.159Z,99.90
2018-07-12T00:56:33.053Z,99.90
2018-07-12T00:59:00.894Z,99.90
2018-07-12T01:01:28.755Z,99.90
2018-07-12T01:03:56.468Z,99.90
2018-07-12T01:06:24.297Z,99.90
2018-07-12T01:08:52.144Z,99.90
2018-07-12T01:11:20.048Z,99.90
2018-07-12T01:13:48.084Z,99.90
2018-07-12T01:16:15.756Z,99.90
2018-07-12T01:18:43.806Z,99.90
2018-07-12T01:21:11.568Z,99.90
2018-07-12T01:23:39.548Z,99.90
2018-07-12T01:26:07.863Z,99.90
2018-07-12T01:28:35.691Z,99.90
2018-07-12T01:31:03.263Z,99.90
2018-07-12T01:33:31.123Z,99.90
2018-07-12T01:35:58.780Z,99.90
2018-07-12T01:38:26.535Z,99.90
2018-07-12T01:40:54.320Z,99.90
2018-07-12T01:43:22.058Z,99.90
2018-07-12T01:45:49.635Z,99.90
2018-07-12T01:48:17.619Z,99.90
2018-07-12T01:50:45.679Z,99.90
2018-07-12T01:53:13.602Z,99.90
2018-07-12T01:55:41.236Z,99.90
2018-07-12T01:58:09.038Z,99.90
2018-07-12T02:00:36.738Z,99.90
2018-07-12T02:03:04.827Z,99.90
2018-07-12T02:05:32.647Z,99.90
2018-07-12T02:08:00.684Z,99.90
2018-07-12T02:10:28.421Z,99.90
2018-07-12T02:12:56.224Z,99.90
2018-07-12T02:15:24.316Z,99.90
2018-07-12T02:17:52.431Z,99.90
2018-07-12T02:20:20.461Z,99.90
2018-07-12T02:22:48.212Z,99.90
2018-07-12T02:25:16.023Z,99.90
2018-07-12T02:27:43.831Z,99.90
2018-07-12T02:30:11.726Z,99.90
2018-07-12T02:32:39.625Z,99.90
2018-07-12T02:35:07.190Z,99.90
2018-07-12T02:37:34.904Z,99.90
2018-07-12T02:40:02.814Z,99.90
2018-07-12T02:42:30.780Z,99.90
2018-07-12T02:44:58.599Z,99.90
2018-07-12T02:47:26.617Z,99.90
2018-07-12T02:49:54.110Z,99.90
2018-07-12T02:52:21.686Z,99.90
2018-07-12T02:54:49.596Z,99.90
2018-07-12T02:57:18.412Z,99.90
2018-07-12T02:59:45.985Z,99.90
2018-07-12T03:02:13.855Z,99.90
2018-07-12T03:04:41.749Z,99.90
2018-07-12T03:07:09.504Z,99.90
2018-07-12T03:09:37.404Z,99.90
2018-07-12T03:12:05.238Z,99.90
2018-07-12T03:14:33.131Z,99.90
2018-07-12T03:17:00.681Z,99.90
2018-07-12T03:19:28.798Z,99.90
2018-07-12T03:21:56.487Z,99.90
2018-07-12T03:24:24.835Z,99.90
2018-07-12T03:26:52.831Z,99.90
2018-07-12T03:29:20.589Z,99.90
2018-07-12T03:31:48.472Z,99.90
2018-07-12T03:34:16.243Z,99.90
2018-07-12T03:36:44.293Z,99.90
2018-07-12T03:39:12.071Z,99.90
2018-07-12T03:41:39.844Z,99.90
2018-07-12T03:44:07.824Z,99.90
2018-07-12T03:46:35.472Z,99.90
2018-07-12T03:49:04.241Z,99.90
2018-07-12T03:51:32.131Z,99.90
2018-07-12T03:54:00.512Z,99.90
2018-07-12T03:56:28.495Z,99.90
2018-07-12T03:58:56.565Z,99.90
2018-07-12T04:01:24.424Z,99.90
2018-07-12T04:03:52.265Z,99.90
2018-07-12T04:06:20.064Z,99.90
2018-07-12T04:08:48.097Z,99.90
2018-07-12T04:11:15.993Z,99.90
2018-07-12T04:13:43.902Z,99.90
2018-07-12T04:16:11.600Z,99.90
2018-07-12T04:18:39.334Z,99.90
2018-07-12T04:21:07.182Z,99.90
2018-07-12T04:23:34.803Z,99.90
2018-07-12T04:26:02.305Z,99.90
2018-07-12T04:28:29.764Z,99.90
2018-07-12T04:30:57.283Z,99.90
2018-07-12T04:33:25.316Z,99.90
2018-07-12T04:35:53.323Z,99.90
2018-07-12T04:38:21.064Z,99.90
2018-07-12T04:40:49.064Z,99.90
2018-07-12T04:43:17.179Z,99.90
2018-07-12T04:45:45.080Z,99.90
2018-07-12T04:48:12.826Z,99.90
2018-07-12T04:50:40.673Z,99.90
2018-07-12T04:53:08.459Z,99.90
2018-07-12T04:55:36.611Z,99.90
2018-07-12T04:58:04.522Z,99.90
2018-07-12T05:00:32.172Z,99.90
2018-07-12T05:02:59.715Z,99.90
2018-07-12T05:05:27.472Z,99.90
2018-07-12T05:07:55.156Z,99.90
2018-07-12T05:10:23.195Z,99.90
2018-07-12T05:12:50.950Z,99.90
2018-07-12T05:15:18.959Z,99.90
2018-07-12T05:17:46.605Z,99.90
2018-07-12T05:20:14.530Z,99.90
2018-07-12T05:22:42.564Z,99.90
2018-07-12T05:25:10.187Z,99.90
2018-07-12T05:27:37.855Z,99.90
2018-07-12T05:30:05.531Z,99.90
2018-07-12T05:32:33.572Z,99.90
2018-07-12T05:35:01.287Z,99.90
2018-07-12T05:37:30.360Z,99.90
2018-07-12T05:39:59.560Z,99.90
2018-07-12T05:42:29.172Z,99.90
2018-07-12T05:44:58.887Z,99.90
2018-07-12T05:47:28.363Z,99.90
2018-07-12T05:49:57.927Z,99.90
2018-07-12T05:52:27.121Z,99.90
2018-07-12T05:54:56.321Z,99.90
2018-07-12T05:57:25.496Z,99.90
2018-07-12T05:59:55.243Z,99.90
2018-07-12T06:02:24.773Z,99.90
2018-07-12T06:04:54.230Z,99.90
2018-07-12T06:07:29.417Z,99.90
2018-07-12T06:09:58.912Z,99.90
2018-07-12T06:12:28.440Z,99.90
2018-07-12T06:14:57.651Z,99.90
2018-07-12T06:17:27.075Z,99.90
2018-07-12T06:19:56.336Z,99.90
2018-07-12T06:22:25.524Z,99.90
2018-07-12T06:24:54.734Z,99.90
2018-07-12T06:27:23.987Z,99.90
2018-07-12T06:29:53.491Z,99.90
2018-07-12T06:32:22.890Z,99.90
2018-07-12T06:34:51.981Z,99.90
2018-07-12T06:37:21.581Z,99.90
2018-07-12T06:39:51.090Z,99.90
2018-07-12T06:42:20.461Z,99.90
2018-07-12T06:44:49.684Z,99.90
2018-07-12T06:47:19.049Z,99.90
2018-07-12T06:49:48.299Z,99.90
2018-07-12T06:52:17.771Z,99.90
2018-07-12T06:54:46.931Z,99.90
2018-07-12T06:57:16.089Z,99.90
2018-07-12T06:59:45.480Z,99.90
2018-07-12T07:02:14.503Z,99.90
2018-07-12T07:04:43.753Z,99.90
2018-07-12T07:07:13.491Z,99.90
2018-07-12T07:09:42.808Z,99.90
2018-07-12T07:12:12.062Z,99.90
2018-07-12T07:14:41.379Z,99.90
2018-07-12T07:17:10.482Z,99.90
2018-07-12T07:19:40.008Z,99.90
2018-07-12T07:22:09.251Z,99.90
2018-07-12T07:24:38.865Z,99.90
2018-07-12T07:27:08.090Z,99.90
2018-07-12T07:29:37.368Z,99.90
2018-07-12T07:32:07.080Z,99.90
2018-07-12T07:34:36.439Z,99.90
2018-07-12T07:37:05.584Z,99.90
2018-07-12T07:39:34.730Z,99.90
2018-07-12T07:42:04.136Z,99.90
2018-07-12T07:44:33.350Z,99.90
2018-07-12T07:47:02.631Z,99.90
2018-07-12T07:49:31.782Z,99.90
2018-07-12T07:52:01.649Z,99.90
2018-07-12T07:56:59.795Z,99.90
2018-07-12T07:59:29.255Z,99.90
2018-07-12T08:01:58.438Z,99.90
2018-07-12T08:04:27.809Z,99.90
2018-07-12T08:06:57.221Z,99.90
2018-07-12T08:09:26.459Z,99.90
2018-07-12T08:11:55.820Z,99.90
2018-07-12T08:14:25.045Z,99.90
2018-07-12T08:16:54.219Z,99.90
2018-07-12T08:19:23.375Z,99.90
2018-07-12T08:22:02.089Z,99.90
2018-07-12T08:24:31.401Z,99.90
2018-07-12T08:27:00.493Z,99.90
2018-07-12T08:29:29.967Z,99.90
2018-07-12T08:31:59.515Z,99.90
2018-07-12T08:34:29.008Z,99.90
2018-07-12T08:36:58.612Z,99.90
2018-07-12T08:39:27.956Z,99.90
2018-07-12T08:41:57.260Z,99.90
2018-07-12T08:44:27.083Z,99.90
2018-07-12T08:46:56.313Z,99.90
2018-07-12T08:49:25.252Z,99.90
2018-07-12T08:51:54.527Z,99.90
2018-07-12T08:54:24.080Z,99.90
2018-07-12T08:56:53.091Z,99.90
2018-07-12T08:59:22.372Z,99.90
2018-07-12T09:01:51.591Z,99.90
2018-07-12T09:04:20.738Z,99.90
2018-07-12T09:06:50.029Z,99.90
2018-07-12T09:09:19.386Z,99.90
2018-07-12T09:11:48.948Z,98.30
2018-07-12T09:14:18.151Z,99.90
2018-07-12T09:16:47.438Z,99.60
2018-07-12T09:19:16.601Z,99.90
2018-07-12T09:21:45.977Z,99.80
2018-07-12T09:24:15.252Z,99.60
2018-07-12T09:26:44.663Z,96.20
2018-07-12T09:31:42.923Z,96.70
2018-07-12T09:34:12.400Z,96.50
2018-07-12T09:36:41.969Z,95.30
2018-07-12T09:39:11.033Z,95.40
2018-07-12T09:41:40.636Z,92.80
2018-07-12T09:44:10.228Z,95.10
2018-07-12T09:46:39.415Z,92.90
2018-07-12T09:49:08.663Z,93.00
2018-07-12T09:51:37.845Z,90.40
2018-07-12T09:54:07.202Z,91.30
2018-07-12T09:56:47.624Z,89.80
2018-07-12T09:59:17.266Z,90.70
2018-07-12T10:01:51.993Z,86.70
2018-07-12T10:04:25.591Z,90.60
2018-07-12T10:07:00.292Z,89.90
2018-07-12T10:09:34.808Z,83.00
2018-07-12T10:12:09.490Z,82.80
2018-07-12T10:14:44.101Z,84.40
2018-07-12T10:17:17.734Z,80.30
2018-07-12T10:19:46.951Z,83.50
2018-07-12T10:22:16.708Z,79.80
2018-07-12T10:24:46.080Z,80.80
2018-07-12T10:27:15.393Z,84.70
2018-07-12T10:29:44.682Z,82.80
2018-07-12T10:32:13.896Z,74.90
2018-07-12T10:34:43.240Z,73.60
2018-07-12T10:37:12.452Z,75.60
2018-07-12T10:39:41.668Z,71.50
2018-07-12T10:42:11.103Z,69.20
2018-07-12T10:44:40.429Z,72.80
2018-07-12T10:47:09.718Z,80.20
2018-07-12T10:49:39.096Z,73.30
2018-07-12T10:52:10.916Z,69.80
2018-07-12T10:54:40.105Z,74.10
2018-07-12T10:57:09.880Z,70.40
2018-07-12T10:59:39.160Z,70.10
2018-07-12T11:02:08.391Z,65.60
2018-07-12T11:04:37.626Z,70.50
2018-07-12T11:07:07.148Z,71.10
2018-07-12T11:09:36.527Z,76.00
2018-07-12T11:12:05.760Z,71.70
2018-07-12T11:14:34.883Z,71.70
2018-07-12T11:17:04.955Z,65.10
2018-07-12T11:19:34.389Z,71.20
2018-07-12T11:22:03.767Z,68.60
2018-07-12T11:24:33.273Z,69.40
2018-07-12T11:27:02.924Z,71.90
2018-07-12T11:29:43.456Z,70.90
2018-07-12T11:32:13.073Z,71.50
2018-07-12T11:34:43.214Z,68.50
2018-07-12T11:37:18.579Z,66.60
2018-07-12T11:39:48.314Z,70.10
2018-07-12T11:42:17.882Z,66.10
2018-07-12T11:44:47.701Z,73.20
2018-07-12T11:47:17.127Z,69.70
2018-07-12T11:49:46.333Z,72.50
2018-07-12T11:52:16.180Z,71.70
2018-07-12T11:54:45.440Z,68.50
2018-07-12T11:57:14.683Z,74.10
2018-07-12T11:59:43.797Z,70.70
2018-07-12T12:02:13.288Z,72.20
2018-07-12T12:04:42.776Z,72.80
2018-07-12T12:07:12.168Z,72.10
2018-07-12T12:09:41.387Z,72.20
2018-07-12T12:12:10.796Z,75.20
2018-07-12T12:14:40.240Z,72.60
2018-07-12T12:17:09.976Z,76.20
2018-07-12T12:19:39.076Z,77.10
2018-07-12T12:22:08.523Z,74.50
2018-07-12T12:24:37.697Z,76.60
2018-07-12T12:27:06.968Z,78.40
2018-07-12T12:29:36.247Z,76.30
2018-07-12T12:32:05.516Z,72.50
2018-07-12T12:34:34.662Z,73.80
2018-07-12T12:37:04.420Z,75.50
2018-07-12T12:39:33.846Z,73.70
2018-07-12T12:42:03.016Z,75.00
2018-07-12T12:44:32.548Z,71.70
2018-07-12T12:47:02.138Z,71.70
2018-07-12T12:49:31.396Z,66.50
2018-07-12T12:52:00.909Z,66.60
2018-07-12T12:54:30.245Z,69.80
2018-07-12T12:56:59.394Z,74.90
2018-07-12T12:59:28.785Z,71.00
2018-07-12T13:01:58.376Z,74.90
2018-07-12T13:04:27.721Z,73.20
2018-07-12T13:06:56.829Z,77.40
2018-07-12T13:09:26.603Z,77.00
2018-07-12T13:11:56.207Z,76.90
2018-07-12T13:14:25.543Z,78.80
2018-07-12T13:16:54.678Z,75.50
2018-07-12T13:19:24.102Z,74.90
2018-07-12T13:21:53.407Z,73.50
2018-07-12T13:24:22.604Z,73.80
2018-07-12T13:26:52.332Z,71.70
2018-07-12T13:29:21.671Z,73.90
2018-07-12T13:31:51.191Z,72.50
2018-07-12T13:34:20.757Z,69.10
2018-07-12T13:36:50.035Z,68.20
2018-07-12T13:39:19.605Z,69.50
2018-07-12T13:41:49.034Z,70.10
2018-07-12T13:44:21.569Z,71.20
2018-07-12T13:46:52.036Z,74.60
2018-07-12T13:49:21.364Z,73.40
2018-07-12T13:54:20.721Z,73.10
2018-07-12T13:56:50.502Z,72.20
2018-07-12T14:01:48.729Z,80.10
2018-07-12T14:04:18.243Z,75.20
2018-07-12T14:06:47.340Z,73.10
2018-07-12T14:09:16.534Z,72.80
2018-07-12T14:11:45.798Z,73.80
2018-07-12T14:14:15.418Z,74.60
2018-07-12T14:16:44.972Z,73.60
2018-07-12T14:19:17.278Z,76.00
2018-07-12T14:21:49.604Z,77.90
2018-07-12T14:26:52.329Z,75.70
2018-07-12T14:29:23.946Z,77.40
2018-07-12T14:31:55.001Z,80.20
2018-07-12T14:34:24.333Z,76.00
2018-07-12T14:36:53.692Z,76.00
2018-07-12T14:39:23.101Z,77.40
2018-07-12T14:41:52.397Z,75.00
2018-07-12T14:44:22.169Z,74.50
2018-07-12T14:46:51.588Z,76.70
2018-07-12T14:49:20.930Z,74.60
2018-07-12T14:54:18.903Z,81.00
2018-07-12T14:56:48.232Z,75.80
2018-07-12T14:59:17.577Z,79.20
2018-07-12T15:01:46.773Z,77.40
2018-07-12T15:04:16.676Z,77.50
2018-07-12T15:06:46.337Z,80.60
2018-07-12T15:09:16.030Z,80.00
2018-07-12T15:11:44.979Z,77.00
2018-07-12T15:14:14.795Z,78.90
2018-07-12T15:16:44.122Z,79.30
2018-07-12T15:19:14.005Z,78.80
2018-07-12T15:21:43.293Z,79.10
2018-07-12T15:24:12.415Z,77.00
2018-07-12T15:26:41.741Z,79.60
2018-07-12T15:29:11.342Z,83.90
2018-07-12T15:31:40.692Z,81.50
2018-07-12T15:34:10.768Z,84.80
2018-07-12T15:36:40.369Z,84.40
2018-07-12T15:39:10.262Z,89.40
2018-07-12T15:41:39.907Z,92.90
2018-07-12T15:44:09.536Z,99.90
2018-07-12T15:46:38.913Z,99.90
2018-07-12T15:49:08.430Z,99.90
2018-07-12T15:51:38.036Z,99.90
2018-07-12T15:54:07.202Z,99.90
2018-07-12T15:56:37.013Z,99.90
2018-07-12T15:59:06.187Z,99.90
2018-07-12T16:01:36.177Z,99.90
2018-07-12T16:04:05.333Z,99.90
2018-07-12T16:06:35.122Z,99.90
2018-07-12T16:09:05.412Z,99.90
2018-07-12T16:11:34.769Z,99.90
2018-07-12T16:14:04.281Z,99.90
2018-07-12T16:19:02.348Z,99.90
2018-07-12T16:21:33.045Z,99.90
2018-07-12T16:24:02.313Z,99.90
2018-07-12T16:26:31.445Z,99.90
2018-07-12T16:29:00.664Z,99.90
2018-07-12T16:31:30.513Z,99.90
2018-07-12T16:34:00.338Z,99.90
2018-07-12T16:36:29.875Z,99.90
2018-07-12T16:38:59.012Z,99.90
2018-07-12T16:41:29.253Z,99.90
2018-07-12T16:44:00.297Z,99.90
2018-07-12T16:46:30.154Z,99.90
2018-07-12T16:48:59.256Z,99.90
2018-07-12T16:51:29.281Z,99.90
2018-07-12T16:53:59.065Z,99.90
2018-07-12T16:56:28.257Z,99.90
2018-07-12T16:58:58.450Z,99.90
2018-07-12T17:01:27.784Z,99.90
2018-07-12T17:03:57.190Z,99.90
2018-07-12T17:06:26.864Z,99.90
2018-07-12T17:08:57.583Z,99.90
2018-07-12T17:11:26.929Z,99.90
2018-07-12T17:13:56.118Z,99.90
2018-07-12T17:16:25.708Z,99.90
2018-07-12T17:18:54.737Z,99.90
2018-07-12T17:21:24.001Z,99.90
2018-07-12T17:23:53.299Z,99.90
2018-07-12T17:26:22.565Z,99.90
2018-07-12T17:28:51.891Z,99.90
2018-07-12T17:31:21.192Z,99.90
2018-07-12T17:33:50.312Z,99.90
2018-07-12T17:36:19.736Z,99.90
2018-07-12T17:38:48.978Z,99.90
2018-07-12T17:41:18.157Z,99.90
2018-07-12T17:43:47.702Z,99.90
2018-07-12T17:46:16.848Z,99.90
2018-07-12T17:48:46.061Z,99.90
2018-07-12T17:51:15.325Z,99.90
2018-07-12T17:53:44.592Z,99.90
2018-07-12T17:56:13.957Z,99.90
2018-07-12T17:58:43.084Z,99.90
2018-07-12T18:01:12.380Z,99.90
2018-07-12T18:03:41.487Z,99.90
2018-07-12T18:06:11.329Z,99.90
2018-07-12T18:08:41.023Z,99.90
2018-07-12T18:11:10.518Z,99.90
2018-07-12T18:13:40.081Z,99.90
2018-07-12T18:16:09.839Z,99.90
2018-07-12T18:18:39.143Z,99.90
2018-07-12T18:21:08.951Z,99.90
2018-07-12T18:23:38.967Z,99.90
2018-07-12T18:26:08.315Z,99.90
2018-07-12T18:28:37.956Z,99.90
2018-07-12T18:31:08.120Z,99.90
2018-07-12T18:33:38.790Z,99.90
2018-07-12T18:36:08.729Z,99.90
2018-07-12T18:38:39.529Z,99.90
2018-07-12T18:41:09.922Z,99.90
2018-07-12T18:43:39.447Z,99.90
2018-07-12T18:46:09.262Z,99.90
2018-07-12T18:48:38.827Z,99.90
2018-07-12T18:51:08.320Z,99.90
2018-07-12T18:53:37.855Z,99.90
2018-07-12T18:58:36.182Z,99.90
2018-07-12T19:01:06.063Z,99.90
2018-07-12T19:03:35.423Z,99.90
2018-07-12T19:06:04.700Z,99.90
2018-07-12T19:08:36.504Z,99.90
2018-07-12T19:11:06.302Z,99.90
2018-07-12T19:13:36.217Z,99.90
2018-07-12T19:16:06.050Z,99.90
2018-07-12T19:18:36.552Z,99.90
2018-07-12T19:21:08.822Z,99.90
2018-07-12T19:23:40.247Z,99.90
2018-07-12T19:26:09.606Z,99.90
2018-07-12T19:28:38.977Z,99.90
2018-07-12T19:31:08.460Z,99.90
2018-07-12T19:33:37.806Z,99.90
2018-07-12T19:36:07.223Z,99.90
2018-07-12T19:38:36.975Z,99.90
2018-07-12T19:41:06.484Z,99.90
2018-07-12T19:43:35.568Z,99.90
2018-07-12T19:46:04.911Z,99.90
2018-07-12T19:48:34.285Z,99.90
2018-07-12T19:51:03.661Z,99.90
2018-07-12T19:53:32.841Z,99.90
2018-07-12T20:41:24.817Z,99.90
2018-07-12T20:43:54.001Z,99.90
2018-07-12T20:46:23.454Z,99.90
2018-07-12T20:48:52.952Z,99.90
2018-07-12T20:51:22.613Z,99.90
2018-07-12T20:53:52.634Z,99.90
2018-07-12T20:56:22.379Z,99.90
2018-07-12T20:58:51.782Z,99.90
2018-07-12T21:01:21.073Z,99.90
2018-07-12T21:03:50.494Z,99.90
2018-07-12T21:06:19.850Z,99.90
2018-07-12T21:08:49.386Z,99.90
2018-07-12T21:11:19.673Z,99.90
2018-07-12T21:13:49.265Z,99.90
2018-07-12T21:16:18.332Z,99.90
2018-07-12T21:18:47.899Z,99.90
2018-07-12T21:21:16.802Z,99.90
2018-07-12T21:23:46.120Z,99.90
2018-07-12T21:26:15.332Z,99.90
2018-07-12T21:28:44.585Z,99.90
2018-07-12T21:31:13.959Z,99.90
2018-07-12T21:33:43.130Z,99.90
2018-07-12T21:36:12.236Z,99.90
2018-07-12T21:38:41.400Z,99.90
2018-07-12T21:41:10.861Z,99.90
2018-07-12T21:43:40.176Z,99.90
2018-07-12T21:46:09.505Z,99.90
2018-07-12T21:48:38.826Z,99.90
2018-07-12T21:51:07.920Z,99.90
2018-07-12T21:53:37.336Z,99.90
2018-07-12T21:56:06.618Z,99.90
2018-07-12T21:58:35.969Z,99.90
2018-07-12T22:01:05.092Z,99.90
2018-07-12T22:03:34.463Z,99.90
2018-07-12T22:06:03.635Z,99.90
2018-07-12T22:08:32.965Z,99.90
2018-07-12T22:11:03.528Z,99.90
2018-07-12T22:13:34.277Z,99.90
2018-07-12T22:16:03.264Z,99.90
2018-07-12T22:18:32.627Z,99.90
2018-07-12T22:23:30.873Z,99.90
2018-07-12T22:26:00.094Z,99.90
2018-07-12T22:28:29.243Z,99.90
2018-07-12T22:30:58.748Z,99.90
2018-07-12T22:33:27.880Z,99.90
2018-07-12T22:35:57.091Z,99.90
2018-07-12T22:38:26.391Z,99.90
2018-07-12T22:40:55.534Z,99.90
2018-07-12T22:43:24.999Z,99.90
2018-07-12T22:45:54.291Z,99.90
2018-07-12T22:48:23.740Z,99.90
2018-07-12T22:50:53.103Z,99.90
2018-07-12T22:53:22.439Z,99.90
2018-07-12T22:55:51.848Z,99.90
2018-07-12T22:58:21.094Z,99.90
2018-07-12T23:00:50.436Z,99.90
2018-07-12T23:03:19.848Z,99.90
2018-07-12T23:05:49.023Z,99.90
2018-07-12T23:08:18.324Z,99.90
2018-07-12T23:10:47.999Z,99.90
2018-07-12T23:13:17.439Z,99.90
2018-07-12T23:15:46.962Z,99.90
2018-07-12T23:18:16.257Z,99.90
2018-07-12T23:20:45.656Z,99.90
2018-07-12T23:23:15.072Z,99.90
2018-07-12T23:25:45.312Z,99.90
2018-07-12T23:28:14.475Z,99.90
2018-07-12T23:30:43.760Z,99.90
2018-07-12T23:33:12.872Z,99.90
2018-07-12T23:35:41.965Z,99.90
2018-07-12T23:38:11.711Z,99.90
2018-07-12T23:40:41.076Z,99.90
2018-07-12T23:43:10.052Z,99.90
2018-07-12T23:45:39.541Z,99.90
2018-07-12T23:50:37.547Z,99.90
2018-07-12T23:53:06.739Z,99.90
2018-07-12T23:55:35.836Z,99.90
2018-07-12T23:58:05.096Z,99.90
